Halifax, Kentucky
Current Conditions -  °F | °C
As of 9:53 AM on Monday 26 Jan 2015 (Local Time) from KBWG Reporting Station
Overcast Overcast  
Wind Chill: 25°   Ceiling: 1400
Heat Index: 31°   Visibility: 10mi
Dew Point: 25°   Wind: 6mph
Humidity: 79%   Direction: NA
Pressure: 30.02"   Gusts: NA
Location:  36.7794°N, 86.196°W
Report Text: KBWG 261553Z AUTO VRB05KT 10SM OVC014 M01/M04 A3002 RMK AO2 SLP169 T10061039
Loading
Personal Weather Stations






























Interactive Weather Map New forecast layout! Learn more

10-Day Weather Forecast

Advertisements
Track Severe Weather on mobile